Time;durP1;ratioP1;P1;durP2;ratioP2;P2;SDS_P1;SDS_P2;PMS_P1;PMS_P2;Temp;Humidity;BMP_temperature;BMP_pressure;BME280_temperature;BME280_humidity;BME280_pressure;Samples;Min_cycle;Max_cycle;Signal;HPM_P1;HPM_P2
2023/03/13 00:00:46;;;;;;;;;;;11.60;99.90;;;;;;5037936;28;19909;-82
2023/03/13 00:03:11;;;;;;;;;;;11.60;99.90;;;;;;5037712;28;19916;-83
2023/03/13 00:05:37;;;;;;;;;;;11.60;99.90;;;;;;5037773;28;19909;-82
2023/03/13 00:08:02;;;;;;;;;;;11.60;99.90;;;;;;5037393;28;20339;-82
2023/03/13 00:10:28;;;;;;;;;;;11.60;99.90;;;;;;5037723;28;19909;-82
2023/03/13 00:12:53;;;;;;;;;;;11.60;99.90;;;;;;5037440;28;19909;-82
2023/03/13 00:15:19;;;;;;;;;;;11.70;99.90;;;;;;5037324;28;19917;-82
2023/03/13 00:17:44;;;;;;;;;;;11.70;99.90;;;;;;5037225;28;19916;-82
2023/03/13 00:20:10;;;;;;;;;;;11.70;99.90;;;;;;5037031;28;19913;-82
2023/03/13 00:22:35;;;;;;;;;;;11.70;99.90;;;;;;5036941;28;19987;-82
2023/03/13 00:25:01;;;;;;;;;;;11.80;99.90;;;;;;5037383;28;19956;-84
2023/03/13 00:27:26;;;;;;;;;;;11.80;99.90;;;;;;5037450;28;19909;-82
2023/03/13 00:29:52;;;;;;;;;;;11.80;99.90;;;;;;5036774;28;19912;-82
2023/03/13 00:32:17;;;;;;;;;;;11.90;99.90;;;;;;5037103;28;19909;-82
2023/03/13 00:34:42;;;;;;;;;;;11.90;99.90;;;;;;5036385;28;19912;-82
2023/03/13 00:37:08;;;;;;;;;;;12.00;99.90;;;;;;5036811;28;19948;-81
2023/03/13 00:39:33;;;;;;;;;;;12.00;99.90;;;;;;5036285;28;19916;-82
2023/03/13 00:42:02;;;;;;;;;;;12.00;99.90;;;;;;5036438;28;20012;-82
2023/03/13 00:44:28;;;;;;;;;;;11.90;99.90;;;;;;5036684;28;20384;-82
2023/03/13 00:46:54;;;;;;;;;;;11.70;99.90;;;;;;5036322;28;19920;-83
2023/03/13 00:49:19;;;;;;;;;;;11.50;99.90;;;;;;5036591;28;19955;-84
2023/03/13 00:51:44;;;;;;;;;;;11.40;99.90;;;;;;5054231;28;19909;-83
2023/03/13 00:54:10;;;;;;;;;;;11.40;99.90;;;;;;5035408;28;19917;-82
2023/03/13 00:56:36;;;;;;;;;;;11.30;99.90;;;;;;5036594;28;20299;-84
2023/03/13 00:59:01;;;;;;;;;;;11.30;99.90;;;;;;5036577;28;19913;-83
2023/03/13 01:01:31;;;;;;;;;;;11.30;99.90;;;;;;5054033;28;19909;-83
2023/03/13 01:03:59;;;;;;;;;;;11.30;99.90;;;;;;5041589;28;19916;-83
2023/03/13 01:06:28;;;;;;;;;;;11.20;99.90;;;;;;5064460;28;19972;-83
2023/03/13 01:08:54;;;;;;;;;;;11.30;99.90;;;;;;5047284;28;19915;-84
2023/03/13 01:11:21;;;;;;;;;;;11.20;99.90;;;;;;5050880;28;19908;-83
2023/03/13 01:13:47;;;;;;;;;;;11.20;99.90;;;;;;5067201;28;20291;-83
2023/03/13 01:16:14;;;;;;;;;;;11.30;99.90;;;;;;5040814;28;19924;-84
2023/03/13 01:18:41;;;;;;;;;;;11.20;99.90;;;;;;5059035;28;19913;-83
2023/03/13 01:21:06;;;;;;;;;;;11.30;99.90;;;;;;5059074;28;19909;-84
2023/03/13 01:23:32;;;;;;;;;;;11.40;99.90;;;;;;5041192;28;19916;-84
2023/03/13 01:25:57;;;;;;;;;;;11.40;99.90;;;;;;5040283;28;19915;-84
2023/03/13 01:28:23;;;;;;;;;;;11.50;99.90;;;;;;5039912;28;19915;-84
2023/03/13 01:30:49;;;;;;;;;;;11.60;99.90;;;;;;5058086;28;19944;-83
2023/03/13 01:33:15;;;;;;;;;;;11.70;99.90;;;;;;5040437;28;19909;-83
2023/03/13 01:35:40;;;;;;;;;;;11.80;99.90;;;;;;5039730;28;19931;-83
2023/03/13 01:38:06;;;;;;;;;;;11.90;99.90;;;;;;5040698;28;20011;-84
2023/03/13 01:40:37;;;;;;;;;;;12.00;99.90;;;;;;5041001;28;20392;-84
2023/03/13 01:43:11;;;;;;;;;;;12.00;99.90;;;;;;5057824;28;19908;-84
2023/03/13 01:45:55;;;;;;;;;;;12.10;99.90;;;;;;5040408;28;19909;-84
2023/03/13 01:48:41;;;;;;;;;;;12.10;99.90;;;;;;5057546;28;19909;-84
2023/03/13 01:51:09;;;;;;;;;;;12.20;99.90;;;;;;5039536;28;19908;-84
2023/03/13 01:53:37;;;;;;;;;;;12.20;99.90;;;;;;5040338;28;19967;-84
2023/03/13 01:56:04;;;;;;;;;;;12.30;99.90;;;;;;5039538;28;19916;-84
2023/03/13 01:58:30;;;;;;;;;;;12.30;99.90;;;;;;5056825;28;19919;-82
2023/03/13 02:00:57;;;;;;;;;;;12.30;99.90;;;;;;5038356;28;19995;-82
2023/03/13 02:03:22;;;;;;;;;;;12.20;99.90;;;;;;5038431;28;19912;-82
2023/03/13 02:05:49;;;;;;;;;;;12.20;99.90;;;;;;5063248;28;19909;-83
2023/03/13 02:08:28;;;;;;;;;;;12.10;99.90;;;;;;5045929;28;20300;-84
2023/03/13 02:11:00;;;;;;;;;;;12.00;99.90;;;;;;5045634;28;19972;-84
2023/03/13 02:13:26;;;;;;;;;;;12.00;99.90;;;;;;5064004;28;20398;-84
2023/03/13 02:15:52;;;;;;;;;;;11.90;99.90;;;;;;5063277;28;19921;-82
2023/03/13 02:18:17;;;;;;;;;;;11.90;99.90;;;;;;5044867;28;19909;-83
2023/03/13 02:20:43;;;;;;;;;;;11.80;99.90;;;;;;5045215;28;19915;-84
2023/03/13 02:23:29;;;;;;;;;;;11.80;99.90;;;;;;5063748;28;19919;-82
2023/03/13 02:25:55;;;;;;;;;;;11.70;99.90;;;;;;5045236;28;20400;-84
2023/03/13 02:28:23;;;;;;;;;;;11.60;99.90;;;;;;5061734;28;19915;-83
2023/03/13 02:30:50;;;;;;;;;;;11.50;99.90;;;;;;5044943;28;19913;-84
2023/03/13 02:33:16;;;;;;;;;;;11.40;99.90;;;;;;5044925;28;20042;-84
2023/03/13 02:35:43;;;;;;;;;;;11.40;99.90;;;;;;5045902;28;19916;-85
2023/03/13 02:38:10;;;;;;;;;;;11.30;99.90;;;;;;5066334;28;19909;-85
2023/03/13 02:40:37;;;;;;;;;;;11.30;99.90;;;;;;5048577;28;19908;-85
2023/03/13 02:43:07;;;;;;;;;;;11.30;99.90;;;;;;5066261;28;19916;-85
2023/03/13 02:45:33;;;;;;;;;;;11.20;99.90;;;;;;5048910;28;20335;-85
2023/03/13 02:47:59;;;;;;;;;;;11.20;99.90;;;;;;5048080;28;19962;-84
2023/03/13 02:50:25;;;;;;;;;;;11.20;99.90;;;;;;5047487;28;20285;-85
2023/03/13 02:52:54;;;;;;;;;;;11.20;99.90;;;;;;5047734;28;20136;-85
2023/03/13 02:55:23;;;;;;;;;;;11.20;99.90;;;;;;5047186;28;19921;-84
2023/03/13 02:57:49;;;;;;;;;;;11.10;99.90;;;;;;5046543;28;19909;-84
2023/03/13 03:00:16;;;;;;;;;;;11.10;99.90;;;;;;5047678;28;20387;-85
2023/03/13 03:02:42;;;;;;;;;;;11.20;99.90;;;;;;5065459;28;20027;-84
2023/03/13 03:05:08;;;;;;;;;;;11.20;99.90;;;;;;5047689;28;19959;-84
2023/03/13 03:07:34;;;;;;;;;;;11.20;99.90;;;;;;5065453;28;20362;-84
2023/03/13 03:09:59;;;;;;;;;;;11.30;99.90;;;;;;5064876;28;19913;-85
2023/03/13 03:12:25;;;;;;;;;;;11.30;99.90;;;;;;5046774;28;20038;-85
2023/03/13 03:14:50;;;;;;;;;;;11.40;99.90;;;;;;5062649;28;19924;-84
2023/03/13 03:17:16;;;;;;;;;;;11.40;99.90;;;;;;5040645;28;19908;-84
2023/03/13 03:19:41;;;;;;;;;;;11.40;99.90;;;;;;5042661;28;19916;-84
2023/03/13 03:22:06;;;;;;;;;;;11.40;99.90;;;;;;5042859;28;19909;-85
2023/03/13 03:24:32;;;;;;;;;;;11.40;99.90;;;;;;5042872;28;19928;-84
2023/03/13 03:26:57;;;;;;;;;;;11.40;99.90;;;;;;5041403;28;20296;-84
2023/03/13 03:29:23;;;;;;;;;;;11.50;99.90;;;;;;5039759;28;19908;-83
2023/03/13 03:31:48;;;;;;;;;;;11.50;99.90;;;;;;5039298;28;19909;-83
2023/03/13 03:34:14;;;;;;;;;;;11.50;99.90;;;;;;5039892;28;20390;-83
2023/03/13 03:36:40;;;;;;;;;;;11.60;99.90;;;;;;5040234;28;19920;-84
2023/03/13 03:39:05;;;;;;;;;;;11.60;99.90;;;;;;5060490;28;20007;-85
2023/03/13 03:41:31;;;;;;;;;;;11.60;99.90;;;;;;5042702;28;19923;-84
2023/03/13 03:43:56;;;;;;;;;;;11.60;99.90;;;;;;5043479;28;19909;-83
2023/03/13 03:46:23;;;;;;;;;;;11.60;99.90;;;;;;5043197;28;19909;-84
2023/03/13 03:48:49;;;;;;;;;;;11.70;99.90;;;;;;5042724;28;19917;-84
2023/03/13 03:51:14;;;;;;;;;;;11.70;99.90;;;;;;5041700;28;20056;-85
2023/03/13 03:53:40;;;;;;;;;;;11.70;99.90;;;;;;5042218;28;19986;-84
2023/03/13 03:56:05;;;;;;;;;;;11.80;99.90;;;;;;5042236;28;19909;-83
2023/03/13 03:58:31;;;;;;;;;;;11.80;99.90;;;;;;5059183;28;19909;-83
2023/03/13 04:00:56;;;;;;;;;;;11.90;99.90;;;;;;5039343;28;19923;-84
2023/03/13 04:03:22;;;;;;;;;;;11.90;99.90;;;;;;5056984;28;19959;-82
2023/03/13 04:05:48;;;;;;;;;;;11.90;99.90;;;;;;5038798;28;20380;-83
2023/03/13 04:08:14;;;;;;;;;;;12.00;99.90;;;;;;5038827;28;19916;-84
2023/03/13 04:10:39;;;;;;;;;;;12.00;99.90;;;;;;5039113;28;20322;-83
2023/03/13 04:13:05;;;;;;;;;;;12.00;99.90;;;;;;5039089;28;19958;-84
2023/03/13 04:15:30;;;;;;;;;;;12.10;99.90;;;;;;5040779;28;20367;-84
2023/03/13 04:17:56;;;;;;;;;;;12.10;99.90;;;;;;5038328;28;19944;-83
2023/03/13 04:20:21;;;;;;;;;;;12.10;99.90;;;;;;5040239;28;20253;-83
2023/03/13 04:22:46;;;;;;;;;;;12.20;99.90;;;;;;5039854;28;19909;-84
2023/03/13 04:25:12;;;;;;;;;;;12.20;99.90;;;;;;5039745;28;19909;-85
2023/03/13 04:27:37;;;;;;;;;;;12.30;99.90;;;;;;5037856;28;19916;-85
2023/03/13 04:30:03;;;;;;;;;;;12.30;99.90;;;;;;5056825;28;19944;-83
2023/03/13 04:32:29;;;;;;;;;;;12.30;99.90;;;;;;5038062;28;19915;-83
2023/03/13 04:34:54;;;;;;;;;;;12.40;99.90;;;;;;5037875;28;19912;-84
2023/03/13 04:37:19;;;;;;;;;;;12.40;99.90;;;;;;5056356;28;19909;-83
2023/03/13 04:39:46;;;;;;;;;;;12.30;99.90;;;;;;5037792;28;20372;-83
2023/03/13 04:42:11;;;;;;;;;;;12.40;99.90;;;;;;5037792;28;19916;-84
2023/03/13 04:44:37;;;;;;;;;;;12.30;99.90;;;;;;5055997;28;20380;-83
2023/03/13 04:47:02;;;;;;;;;;;12.30;99.90;;;;;;5037266;28;20330;-84
2023/03/13 04:49:28;;;;;;;;;;;12.40;99.90;;;;;;5036859;28;20380;-83
2023/03/13 04:51:53;;;;;;;;;;;12.40;99.90;;;;;;5055371;28;19963;-84
2023/03/13 04:54:19;;;;;;;;;;;12.40;99.90;;;;;;5037070;28;20306;-84
2023/03/13 04:56:44;;;;;;;;;;;12.50;99.90;;;;;;5055290;28;19955;-83
2023/03/13 04:59:11;;;;;;;;;;;12.50;99.90;;;;;;5036896;28;20299;-83
2023/03/13 05:01:36;;;;;;;;;;;12.60;99.90;;;;;;5036594;28;20224;-84
2023/03/13 05:04:02;;;;;;;;;;;12.60;99.90;;;;;;5037209;28;19919;-83
2023/03/13 05:06:28;;;;;;;;;;;12.70;99.90;;;;;;5054938;28;19967;-83
2023/03/13 05:08:53;;;;;;;;;;;12.60;99.90;;;;;;5037109;28;19909;-84
2023/03/13 05:11:18;;;;;;;;;;;12.70;99.90;;;;;;5036454;28;19920;-83
2023/03/13 05:13:44;;;;;;;;;;;12.70;99.90;;;;;;5036865;28;19955;-83
2023/03/13 05:16:09;;;;;;;;;;;12.80;99.90;;;;;;5036040;28;19954;-84
2023/03/13 05:18:35;;;;;;;;;;;12.80;99.90;;;;;;5036658;28;20297;-83
2023/03/13 05:21:01;;;;;;;;;;;12.90;99.90;;;;;;5036068;28;19992;-84
2023/03/13 05:23:26;;;;;;;;;;;13.00;99.90;;;;;;5054395;28;19908;-83
2023/03/13 05:25:52;;;;;;;;;;;13.00;99.90;;;;;;5036875;28;19909;-83
2023/03/13 05:28:17;;;;;;;;;;;13.10;99.90;;;;;;5054320;28;19956;-83
2023/03/13 05:30:43;;;;;;;;;;;13.10;99.90;;;;;;5036336;28;19935;-83
2023/03/13 05:33:08;;;;;;;;;;;13.20;99.90;;;;;;5036197;28;20487;-83
2023/03/13 05:35:34;;;;;;;;;;;13.10;99.90;;;;;;5056212;28;19931;-84
2023/03/13 05:37:59;;;;;;;;;;;13.30;99.90;;;;;;5037367;28;19919;-84
2023/03/13 05:40:25;;;;;;;;;;;13.30;99.90;;;;;;5036927;28;19915;-84
2023/03/13 05:42:50;;;;;;;;;;;13.30;99.90;;;;;;5055199;28;20390;-83
2023/03/13 05:45:16;;;;;;;;;;;13.40;99.90;;;;;;5037273;28;19909;-84
2023/03/13 05:47:41;;;;;;;;;;;13.30;99.90;;;;;;5037203;28;19951;-85
2023/03/13 05:50:07;;;;;;;;;;;13.30;99.90;;;;;;5037920;28;20269;-84
2023/03/13 05:52:33;;;;;;;;;;;13.30;99.90;;;;;;5035757;28;19909;-84
2023/03/13 05:54:58;;;;;;;;;;;13.20;99.90;;;;;;5036068;28;19912;-84
2023/03/13 05:57:24;;;;;;;;;;;13.20;99.90;;;;;;5036135;28;19936;-84
2023/03/13 05:59:49;;;;;;;;;;;13.10;99.90;;;;;;5035981;28;19920;-84
2023/03/13 06:02:15;;;;;;;;;;;13.20;99.90;;;;;;5036517;28;19916;-82
2023/03/13 06:04:41;;;;;;;;;;;13.30;99.90;;;;;;5036685;28;19991;-83
2023/03/13 06:07:06;;;;;;;;;;;13.40;99.90;;;;;;5055461;28;19908;-84
2023/03/13 06:09:31;;;;;;;;;;;13.50;99.90;;;;;;5036633;28;20586;-83
2023/03/13 06:11:57;;;;;;;;;;;13.50;99.90;;;;;;5036147;28;19916;-83
2023/03/13 06:14:23;;;;;;;;;;;13.50;99.90;;;;;;5036139;28;19920;-84
2023/03/13 06:16:48;;;;;;;;;;;13.60;99.90;;;;;;5064706;28;20315;-84
2023/03/13 06:19:14;;;;;;;;;;;13.60;99.90;;;;;;5055958;28;19912;-83
2023/03/13 06:21:39;;;;;;;;;;;13.70;99.90;;;;;;5037530;28;19920;-83
2023/03/13 06:24:05;;;;;;;;;;;13.70;99.90;;;;;;5037740;28;20408;-84
2023/03/13 06:26:30;;;;;;;;;;;13.70;99.90;;;;;;5037156;28;19955;-84
2023/03/13 06:28:56;;;;;;;;;;;13.80;99.90;;;;;;5036604;28;19908;-83
2023/03/13 06:31:21;;;;;;;;;;;13.80;99.90;;;;;;5036279;28;20012;-83
2023/03/13 06:33:47;;;;;;;;;;;13.80;99.90;;;;;;5035927;28;19916;-83
2023/03/13 06:36:12;;;;;;;;;;;13.90;99.90;;;;;;5036004;28;19986;-83
2023/03/13 06:38:38;;;;;;;;;;;13.90;99.90;;;;;;5035993;28;19908;-83
2023/03/13 06:41:03;;;;;;;;;;;14.00;99.90;;;;;;5035546;28;19909;-83
2023/03/13 06:43:29;;;;;;;;;;;13.90;99.90;;;;;;5035769;28;20340;-83
2023/03/13 06:45:54;;;;;;;;;;;13.90;99.90;;;;;;5035665;28;19916;-82
2023/03/13 06:48:21;;;;;;;;;;;13.90;99.90;;;;;;5036686;28;19975;-84
2023/03/13 06:50:47;;;;;;;;;;;13.90;99.90;;;;;;5036353;28;19959;-84
2023/03/13 06:53:17;;;;;;;;;;;13.90;99.90;;;;;;5039468;28;19909;-84
2023/03/13 06:55:43;;;;;;;;;;;13.90;99.90;;;;;;5039987;28;19978;-84
2023/03/13 06:58:09;;;;;;;;;;;14.00;99.90;;;;;;5039660;28;19913;-84
2023/03/13 07:00:34;;;;;;;;;;;14.10;99.90;;;;;;5058198;28;19909;-84
2023/03/13 07:03:00;;;;;;;;;;;14.20;99.90;;;;;;5039176;28;20008;-84
2023/03/13 07:05:26;;;;;;;;;;;14.30;99.90;;;;;;5039911;28;19917;-83
2023/03/13 07:07:51;;;;;;;;;;;14.30;99.90;;;;;;5039541;28;20421;-83
2023/03/13 07:10:17;;;;;;;;;;;14.30;99.90;;;;;;5039672;28;19913;-83
2023/03/13 07:12:43;;;;;;;;;;;14.30;99.90;;;;;;5038907;28;19908;-85
2023/03/13 07:15:09;;;;;;;;;;;14.40;99.90;;;;;;5039284;28;19917;-83
2023/03/13 07:17:35;;;;;;;;;;;14.40;99.90;;;;;;5040191;28;19909;-83
2023/03/13 07:20:02;;;;;;;;;;;14.40;99.90;;;;;;5039907;28;20372;-84
2023/03/13 07:22:27;;;;;;;;;;;14.40;99.90;;;;;;5038853;28;19909;-84
2023/03/13 07:24:53;;;;;;;;;;;14.40;99.90;;;;;;5038381;28;19915;-83
2023/03/13 07:27:19;;;;;;;;;;;14.40;99.90;;;;;;5039344;28;19971;-84
2023/03/13 07:29:45;;;;;;;;;;;14.20;99.90;;;;;;5039008;28;19916;-83
2023/03/13 07:32:11;;;;;;;;;;;14.30;99.90;;;;;;5057254;28;20364;-84
2023/03/13 07:34:36;;;;;;;;;;;14.40;99.90;;;;;;5057223;28;20347;-83
2023/03/13 07:37:01;;;;;;;;;;;14.40;99.90;;;;;;5038889;28;19916;-84
2023/03/13 07:39:27;;;;;;;;;;;14.50;99.90;;;;;;5038480;28;19909;-83
2023/03/13 07:41:52;;;;;;;;;;;14.70;99.90;;;;;;5038517;28;19909;-84
2023/03/13 07:44:18;;;;;;;;;;;14.80;99.90;;;;;;5057813;28;19955;-84
2023/03/13 07:46:43;;;;;;;;;;;14.90;99.90;;;;;;5039267;28;19908;-83
2023/03/13 07:49:09;;;;;;;;;;;14.90;99.90;;;;;;5038201;28;20319;-83
2023/03/13 07:51:34;;;;;;;;;;;15.10;99.90;;;;;;5038433;28;20556;-82
2023/03/13 07:54:00;;;;;;;;;;;15.10;99.90;;;;;;5037843;28;19923;-83
2023/03/13 07:56:25;;;;;;;;;;;15.10;99.90;;;;;;5037819;28;19908;-83
2023/03/13 07:58:51;;;;;;;;;;;15.20;99.90;;;;;;5037535;28;19909;-82
2023/03/13 08:01:21;;;;;;;;;;;15.20;99.90;;;;;;5054931;28;19909;-83
2023/03/13 08:03:49;;;;;;;;;;;15.10;99.90;;;;;;5037070;28;19915;-82
2023/03/13 08:06:16;;;;;;;;;;;15.10;99.90;;;;;;5037409;28;19999;-83
2023/03/13 08:08:41;;;;;;;;;;;15.10;99.90;;;;;;5042083;28;20355;-82
2023/03/13 08:11:11;;;;;;;;;;;15.10;99.90;;;;;;5051527;28;19959;-81
2023/03/13 08:13:37;;;;;;;;;;;15.10;99.90;;;;;;5055537;28;19970;-82
2023/03/13 08:16:06;;;;;;;;;;;15.00;99.90;;;;;;5038158;28;19916;-82
2023/03/13 08:18:33;;;;;;;;;;;15.00;99.90;;;;;;5038031;28;20044;-83
2023/03/13 08:21:09;;;;;;;;;;;15.00;99.90;;;;;;5055727;28;20288;-83
2023/03/13 08:23:35;;;;;;;;;;;15.10;99.90;;;;;;5054515;28;20279;-82
2023/03/13 08:26:16;;;;;;;;;;;15.00;99.90;;;;;;5036590;28;19996;-81
2023/03/13 08:28:43;;;;;;;;;;;15.10;99.90;;;;;;5054722;28;19916;-82
2023/03/13 08:31:09;;;;;;;;;;;15.10;99.90;;;;;;5054453;28;20008;-83
2023/03/13 08:33:35;;;;;;;;;;;15.00;99.90;;;;;;5036416;28;19912;-83
2023/03/13 08:36:09;;;;;;;;;;;15.00;99.90;;;;;;5036263;28;19919;-84
2023/03/13 08:38:34;;;;;;;;;;;14.90;99.90;;;;;;5025451;28;19916;-84
2023/03/13 08:41:00;;;;;;;;;;;14.90;99.90;;;;;;5027501;28;20375;-82
2023/03/13 08:43:25;;;;;;;;;;;14.90;99.90;;;;;;5054512;28;20384;-83
2023/03/13 08:45:55;;;;;;;;;;;14.90;99.90;;;;;;5037002;28;19908;-82
2023/03/13 08:48:20;;;;;;;;;;;14.90;99.90;;;;;;5054734;28;20390;-83
2023/03/13 08:50:46;;;;;;;;;;;15.00;99.90;;;;;;5055047;28;19909;-82
2023/03/13 08:53:11;;;;;;;;;;;15.10;99.90;;;;;;5053312;28;20328;-81
2023/03/13 08:55:36;;;;;;;;;;;15.10;99.90;;;;;;5052588;28;19913;-81
2023/03/13 08:58:02;;;;;;;;;;;15.00;99.90;;;;;;5036375;28;19909;-81
2023/03/13 09:00:27;;;;;;;;;;;15.10;99.90;;;;;;5052201;28;20327;-81
2023/03/13 09:02:55;;;;;;;;;;;15.20;99.90;;;;;;5035226;28;20425;-82
2023/03/13 09:05:21;;;;;;;;;;;15.30;99.90;;;;;;5052100;28;19920;-81
2023/03/13 09:07:46;;;;;;;;;;;15.40;99.90;;;;;;5035668;28;19909;-82
2023/03/13 09:10:12;;;;;;;;;;;15.50;99.90;;;;;;5035439;28;20004;-81
2023/03/13 09:12:37;;;;;;;;;;;15.50;99.90;;;;;;5051183;28;20365;-82
2023/03/13 09:15:03;;;;;;;;;;;15.50;99.90;;;;;;5050981;28;19916;-82
2023/03/13 09:17:29;;;;;;;;;;;15.50;99.90;;;;;;5035342;28;19948;-82
2023/03/13 09:19:54;;;;;;;;;;;15.40;99.90;;;;;;5051927;28;20012;-82
2023/03/13 09:22:19;;;;;;;;;;;15.40;99.90;;;;;;5028105;28;19963;-83
2023/03/13 09:24:45;;;;;;;;;;;15.40;99.90;;;;;;5015118;28;19909;-81
2023/03/13 09:27:10;;;;;;;;;;;15.50;99.90;;;;;;5015232;28;19910;-83
2023/03/13 09:29:38;;;;;;;;;;;15.60;99.90;;;;;;5015503;28;19980;-82
2023/03/13 09:32:04;;;;;;;;;;;15.70;99.90;;;;;;5032302;28;19909;-82
2023/03/13 09:34:30;;;;;;;;;;;15.80;99.90;;;;;;5015164;28;19971;-81
2023/03/13 09:36:56;;;;;;;;;;;16.00;99.90;;;;;;5038761;28;20316;-82
2023/03/13 09:39:21;;;;;;;;;;;16.00;99.90;;;;;;5029884;28;19912;-81
2023/03/13 09:41:47;;;;;;;;;;;16.10;99.90;;;;;;5050761;28;19916;-81
2023/03/13 09:44:16;;;;;;;;;;;16.20;99.90;;;;;;5032185;28;19913;-83
2023/03/13 09:46:58;;;;;;;;;;;16.50;99.90;;;;;;5048634;28;19909;-81
2023/03/13 09:50:02;;;;;;;;;;;16.80;99.90;;;;;;5052177;28;19913;-82
2023/03/13 09:52:30;;;;;;;;;;;16.80;99.90;;;;;;4990162;28;19921;-82
2023/03/13 09:54:58;;;;;;;;;;;16.90;99.90;;;;;;4991027;28;19913;-81
2023/03/13 09:57:26;;;;;;;;;;;16.80;99.90;;;;;;5004205;28;20349;-82
2023/03/13 09:59:54;;;;;;;;;;;16.70;99.90;;;;;;5034868;28;19909;-82
2023/03/13 10:02:28;;;;;;;;;;;16.60;99.90;;;;;;5033635;28;19920;-82
2023/03/13 10:05:16;;;;;;;;;;;16.80;99.90;;;;;;5035197;28;19916;-81
2023/03/13 10:07:42;;;;;;;;;;;16.90;99.90;;;;;;5044167;28;20412;-82
2023/03/13 10:10:18;;;;;;;;;;;17.20;99.90;;;;;;5042459;28;19936;-81
2023/03/13 10:12:45;;;;;;;;;;;17.30;99.90;;;;;;5045527;28;19916;-82
2023/03/13 10:15:20;;;;;;;;;;;17.30;99.90;;;;;;5035041;28;19944;-84
2023/03/13 10:17:45;;;;;;;;;;;17.40;99.90;;;;;;5029234;28;19984;-85
2023/03/13 10:20:17;;;;;;;;;;;17.90;99.90;;;;;;5048744;28;19909;-85
2023/03/13 10:22:47;;;;;;;;;;;19.00;99.90;;;;;;5025565;28;19909;-85
2023/03/13 10:25:16;;;;;;;;;;;19.40;99.90;;;;;;5025758;28;19916;-84
2023/03/13 10:27:49;;;;;;;;;;;21.30;99.90;;;;;;5029366;28;19980;-83
2023/03/13 10:30:21;;;;;;;;;;;21.40;99.90;;;;;;5028422;28;20300;-84
2023/03/13 10:32:47;;;;;;;;;;;20.50;99.90;;;;;;5046360;28;19940;-85
2023/03/13 10:35:19;;;;;;;;;;;20.70;99.90;;;;;;5029684;28;19913;-85
2023/03/13 10:37:44;;;;;;;;;;;21.10;99.90;;;;;;5030265;28;19909;-85
2023/03/13 10:40:19;;;;;;;;;;;21.00;99.90;;;;;;5029950;28;19910;-83
2023/03/13 10:42:44;;;;;;;;;;;20.40;99.90;;;;;;5027554;28;19916;-85
2023/03/13 10:45:13;;;;;;;;;;;20.20;99.90;;;;;;5045968;28;19909;-84
2023/03/13 10:47:39;;;;;;;;;;;21.30;99.90;;;;;;5045808;28;19936;-85
2023/03/13 10:50:04;;;;;;;;;;;21.00;99.90;;;;;;5044320;28;20292;-84
2023/03/13 10:52:32;;;;;;;;;;;20.50;99.90;;;;;;5023113;28;19909;-83
2023/03/13 10:55:15;;;;;;;;;;;20.10;99.90;;;;;;5041381;28;19914;-83
2023/03/13 10:57:50;;;;;;;;;;;19.60;99.90;;;;;;5022584;28;19909;-83
2023/03/13 11:00:24;;;;;;;;;;;20.00;99.90;;;;;;5040971;28;19996;-83
2023/03/13 11:02:49;;;;;;;;;;;22.00;99.90;;;;;;5035871;28;19915;-83
2023/03/13 11:05:24;;;;;;;;;;;21.90;99.90;;;;;;5017725;28;19910;-82
2023/03/13 11:07:49;;;;;;;;;;;21.70;99.90;;;;;;5043542;28;19955;-85
2023/03/13 11:10:18;;;;;;;;;;;20.40;99.90;;;;;;5067222;28;19908;-84
2023/03/13 11:12:50;;;;;;;;;;;20.40;99.90;;;;;;5040657;28;20003;-85
2023/03/13 11:15:17;;;;;;;;;;;21.20;99.90;;;;;;5060891;28;19916;-83
2023/03/13 11:17:45;;;;;;;;;;;21.30;99.90;;;;;;5063868;28;19912;-83
2023/03/13 11:20:27;;;;;;;;;;;21.60;99.90;;;;;;5045592;28;19944;-84
2023/03/13 11:22:58;;;;;;;;;;;21.00;99.90;;;;;;5045195;28;19908;-84
2023/03/13 11:25:47;;;;;;;;;;;20.40;99.90;;;;;;5044268;28;19916;-84
2023/03/13 11:28:21;;;;;;;;;;;20.40;99.90;;;;;;5044033;28;19908;-84
2023/03/13 11:31:13;;;;;;;;;;;20.50;99.90;;;;;;5044213;28;19909;-83
2023/03/13 11:33:56;;;;;;;;;;;19.90;99.90;;;;;;5040531;28;20364;-84
2023/03/13 11:36:24;;;;;;;;;;;19.40;99.90;;;;;;5047810;28;19913;-86
2023/03/13 11:38:59;;;;;;;;;;;19.60;99.90;;;;;;5033881;28;20277;-85
2023/03/13 11:41:39;;;;;;;;;;;22.10;99.90;;;;;;5045022;28;19917;-85
2023/03/13 11:44:18;;;;;;;;;;;21.60;99.90;;;;;;5025355;28;19909;-83
2023/03/13 11:46:53;;;;;;;;;;;21.80;99.90;;;;;;5020736;28;19959;-84
2023/03/13 11:49:26;;;;;;;;;;;20.90;99.90;;;;;;5020666;28;19974;-83
2023/03/13 11:52:08;;;;;;;;;;;22.60;99.90;;;;;;5020205;28;19909;-84
2023/03/13 11:54:52;;;;;;;;;;;24.30;99.90;;;;;;5021025;28;19970;-84
2023/03/13 11:57:28;;;;;;;;;;;25.80;99.90;;;;;;5038349;28;19963;-83
2023/03/13 12:00:15;;;;;;;;;;;26.50;97.70;;;;;;5020467;28;19963;-83
2023/03/13 12:02:47;;;;;;;;;;;26.00;95.30;;;;;;5020397;28;19915;-83
2023/03/13 12:05:13;;;;;;;;;;;24.10;97.10;;;;;;5021429;28;19913;-83
2023/03/13 12:07:48;;;;;;;;;;;21.90;99.90;;;;;;5033246;28;19913;-84
2023/03/13 12:10:20;;;;;;;;;;;21.10;99.90;;;;;;5041716;28;20357;-84
2023/03/13 12:12:53;;;;;;;;;;;20.20;99.90;;;;;;5040007;28;19909;-84
2023/03/13 12:15:21;;;;;;;;;;;19.80;99.90;;;;;;5057256;28;20013;-83
2023/03/13 12:18:10;;;;;;;;;;;19.20;99.90;;;;;;5038717;28;19919;-84
2023/03/13 12:20:41;;;;;;;;;;;18.80;99.90;;;;;;5032128;28;19980;-83
2023/03/13 12:23:07;;;;;;;;;;;19.00;99.90;;;;;;5057089;28;19909;-83
2023/03/13 12:25:47;;;;;;;;;;;19.00;99.90;;;;;;5039713;28;19908;-82
2023/03/13 12:28:23;;;;;;;;;;;20.40;99.90;;;;;;5039636;28;20000;-82
2023/03/13 12:30:52;;;;;;;;;;;21.20;99.90;;;;;;5057652;28;19923;-82
2023/03/13 12:33:27;;;;;;;;;;;22.00;99.90;;;;;;5057560;28;19963;-82
2023/03/13 12:35:57;;;;;;;;;;;21.70;99.90;;;;;;5057758;28;19913;-81
2023/03/13 12:38:36;;;;;;;;;;;22.40;99.90;;;;;;5039781;28;19913;-81
2023/03/13 12:41:07;;;;;;;;;;;23.20;99.90;;;;;;5039293;28;19947;-83
2023/03/13 12:43:33;;;;;;;;;;;24.00;99.90;;;;;;5039429;28;19909;-82
2023/03/13 12:45:59;;;;;;;;;;;24.10;99.90;;;;;;5038617;28;19920;-83
2023/03/13 12:48:44;;;;;;;;;;;23.10;99.90;;;;;;5038228;28;20159;-83
2023/03/13 12:51:21;;;;;;;;;;;21.70;99.90;;;;;;5038377;28;20635;-82
2023/03/13 12:53:47;;;;;;;;;;;21.40;99.90;;;;;;5038022;28;19912;-82
2023/03/13 12:56:30;;;;;;;;;;;20.70;99.90;;;;;;5056039;28;19909;-83
2023/03/13 12:58:59;;;;;;;;;;;20.60;99.90;;;;;;5055826;28;19909;-82
2023/03/13 13:01:28;;;;;;;;;;;20.20;99.90;;;;;;5055896;28;19943;-83
2023/03/13 13:03:58;;;;;;;;;;;20.00;99.90;;;;;;5037619;28;19913;-83
2023/03/13 13:06:24;;;;;;;;;;;19.70;99.90;;;;;;5036876;28;20003;-83
2023/03/13 13:08:53;;;;;;;;;;;19.50;99.90;;;;;;5037595;28;19909;-83
2023/03/13 13:11:33;;;;;;;;;;;19.30;99.90;;;;;;5037453;28;20329;-83
2023/03/13 13:14:15;;;;;;;;;;;19.00;99.90;;;;;;5037115;28;19916;-83
2023/03/13 13:16:45;;;;;;;;;;;19.10;99.90;;;;;;5056040;28;19948;-83
2023/03/13 13:19:23;;;;;;;;;;;19.00;99.90;;;;;;5057077;28;19916;-83
2023/03/13 13:22:07;;;;;;;;;;;19.60;99.90;;;;;;5038403;28;19962;-83
2023/03/13 13:24:39;;;;;;;;;;;21.10;99.90;;;;;;5017222;28;19909;-82
2023/03/13 13:27:24;;;;;;;;;;;20.40;99.90;;;;;;5017071;28;20467;-82
2023/03/13 13:29:54;;;;;;;;;;;19.50;99.90;;;;;;5034906;28;19909;-81
2023/03/13 13:32:37;;;;;;;;;;;18.90;99.90;;;;;;5054789;28;20379;-83
2023/03/13 13:35:05;;;;;;;;;;;18.70;99.90;;;;;;5036336;28;19913;-81
2023/03/13 13:37:30;;;;;;;;;;;18.50;99.90;;;;;;5055089;28;19916;-83
2023/03/13 13:40:16;;;;;;;;;;;18.30;99.90;;;;;;5055264;28;19909;-84
2023/03/13 13:42:49;;;;;;;;;;;18.10;99.90;;;;;;5036131;28;19909;-83
2023/03/13 13:45:14;;;;;;;;;;;18.10;99.90;;;;;;5036612;28;19995;-83
2023/03/13 13:47:42;;;;;;;;;;;18.20;99.90;;;;;;5055480;28;19997;-82
2023/03/13 13:50:17;;;;;;;;;;;18.10;99.90;;;;;;5036935;28;19955;-83
2023/03/13 13:52:43;;;;;;;;;;;18.00;99.90;;;;;;5037346;28;19909;-83
2023/03/13 13:55:27;;;;;;;;;;;18.20;99.90;;;;;;5054626;28;19967;-82
2023/03/13 13:58:03;;;;;;;;;;;18.20;99.90;;;;;;5055086;28;20000;-83
2023/03/13 14:00:35;;;;;;;;;;;18.30;99.90;;;;;;5035948;28;20511;-82
2023/03/13 14:03:01;;;;;;;;;;;18.20;99.90;;;;;;5035756;28;19916;-81
2023/03/13 14:05:27;;;;;;;;;;;18.20;99.90;;;;;;5035325;28;19908;-81
2023/03/13 14:08:13;;;;;;;;;;;18.20;99.90;;;;;;5053340;28;19909;-81
2023/03/13 14:10:40;;;;;;;;;;;18.30;99.90;;;;;;5053611;28;19910;-81
2023/03/13 14:13:12;;;;;;;;;;;18.60;99.90;;;;;;5053252;28;19909;-81
2023/03/13 14:15:40;;;;;;;;;;;19.10;99.90;;;;;;5035504;28;19924;-81
2023/03/13 14:18:10;;;;;;;;;;;19.80;99.90;;;;;;5036719;28;19909;-83
2023/03/13 14:20:37;;;;;;;;;;;20.70;99.90;;;;;;5053627;28;19916;-83
2023/03/13 14:23:07;;;;;;;;;;;21.60;99.90;;;;;;5035539;28;19916;-83